Time;durP1;ratioP1;P1;durP2;ratioP2;P2;SDS_P1;SDS_P2;PMS_P1;PMS_P2;Temp;Humidity;BMP_temperature;BMP_pressure;BME280_temperature;BME280_humidity;BME280_pressure;Samples;Min_cycle;Max_cycle;Signal;HPM_P1;HPM_P2
2022/12/18 00:01:40;;;;;;;;;;;;;;;1.30;59.48;101847.63;5280397;32;36054;-69
2022/12/18 00:04:42;;;;;;;;;;;;;;;1.21;59.36;101857.78;5286730;33;35105;-72
2022/12/18 00:07:44;;;;;;;;;;;;;;;1.45;58.96;101862.62;5278417;33;35934;-70
2022/12/18 00:10:46;;;;;;;;;;;;;;;1.46;58.07;101867.84;5288101;33;44590;-71
2022/12/18 00:13:48;;;;;;;;;;;;;;;1.28;58.18;101863.13;5272885;33;35383;-71
2022/12/18 00:16:50;;;;;;;;;;;;;;;1.08;59.22;101883.38;5269658;33;34773;-70
2022/12/18 00:19:51;;;;;;;;;;;;;;;0.68;59.84;101889.31;5286553;33;36286;-70
2022/12/18 00:22:53;;;;;;;;;;;;;;;0.85;59.93;101896.62;5277471;33;36376;-72
2022/12/18 00:25:59;;;;;;;;;;;;;;;1.24;58.93;101905.34;5295780;32;35510;-71
2022/12/18 00:29:02;;;;;;;;;;;;;;;1.07;59.33;101907.53;5267378;33;34854;-72
2022/12/18 00:32:06;;;;;;;;;;;;;;;0.65;60.68;101909.94;5278598;33;36561;-70
2022/12/18 00:35:08;;;;;;;;;;;;;;;1.72;57.15;101908.97;5273043;33;36299;-71
2022/12/18 00:38:10;;;;;;;;;;;;;;;0.18;61.22;101919.00;5260396;33;35219;-71
2022/12/18 00:41:12;;;;;;;;;;;;;;;0.50;60.45;101925.94;5274100;33;37097;-70
2022/12/18 00:44:15;;;;;;;;;;;;;;;-0.08;61.86;101926.91;5280047;32;44966;-70
2022/12/18 00:47:17;;;;;;;;;;;;;;;0.44;60.52;101924.87;5284492;33;35469;-71
2022/12/18 00:50:20;;;;;;;;;;;;;;;-0.45;63.14;101930.12;5269299;33;35352;-72
2022/12/18 00:53:21;;;;;;;;;;;;;;;-0.47;63.67;101939.53;5278869;33;36148;-70
2022/12/18 00:56:23;;;;;;;;;;;;;;;-0.50;63.78;101943.75;5275870;33;36136;-71
2022/12/18 00:59:25;;;;;;;;;;;;;;;-0.47;64.14;101946.41;5269708;33;35383;-71
2022/12/18 01:02:27;;;;;;;;;;;;;;;-0.45;63.63;101947.31;5285229;33;34926;-71
2022/12/18 01:05:29;;;;;;;;;;;;;;;-0.12;62.30;101950.94;5273886;33;35666;-72
2022/12/18 01:08:31;;;;;;;;;;;;;;;1.02;58.36;101942.78;5293704;33;35695;-72
2022/12/18 01:11:33;;;;;;;;;;;;;;;0.33;59.81;101950.50;5267869;33;35468;-70
2022/12/18 01:14:35;;;;;;;;;;;;;;;0.15;60.41;101957.72;5288087;33;36122;-72
2022/12/18 01:17:37;;;;;;;;;;;;;;;0.17;61.43;101966.41;5276699;33;36224;-70
2022/12/18 01:20:39;;;;;;;;;;;;;;;0.09;61.41;101965.31;5269378;33;36314;-70
2022/12/18 01:23:41;;;;;;;;;;;;;;;0.31;59.84;101972.81;5285617;33;35415;-71
2022/12/18 01:26:43;;;;;;;;;;;;;;;0.18;61.18;101974.19;5278856;33;35244;-70
2022/12/18 01:29:45;;;;;;;;;;;;;;;0.46;60.01;101972.41;5281866;33;47045;-71
2022/12/18 01:32:47;;;;;;;;;;;;;;;1.38;57.66;101970.44;5264761;33;35666;-71
2022/12/18 01:35:49;;;;;;;;;;;;;;;0.75;57.94;101971.44;5276067;33;36045;-71
2022/12/18 01:38:51;;;;;;;;;;;;;;;0.78;59.10;101981.91;5272512;33;35204;-71
2022/12/18 01:42:02;;;;;;;;;;;;;;;1.58;56.41;101984.72;5263911;33;35534;-72
2022/12/18 01:45:04;;;;;;;;;;;;;;;0.74;58.42;101984.34;5296681;32;35423;-70
2022/12/18 01:48:06;;;;;;;;;;;;;;;1.27;57.63;101982.25;5271471;33;35440;-70
2022/12/18 01:51:08;;;;;;;;;;;;;;;1.95;55.67;101985.56;5296666;32;35910;-71
2022/12/18 01:54:10;;;;;;;;;;;;;;;1.54;56.02;101987.19;5282280;33;35677;-72
2022/12/18 01:57:12;;;;;;;;;;;;;;;1.20;57.17;101991.56;5284756;33;35998;-71
2022/12/18 02:00:15;;;;;;;;;;;;;;;0.60;58.81;101996.06;5283182;33;35248;-70
2022/12/18 02:03:17;;;;;;;;;;;;;;;-0.57;62.71;102012.41;5283016;32;44752;-71
2022/12/18 02:06:20;;;;;;;;;;;;;;;0.57;60.64;102012.34;5289237;33;35300;-71
2022/12/18 02:09:28;;;;;;;;;;;;;;;1.09;59.32;102005.97;5271861;33;34758;-71
2022/12/18 02:12:33;;;;;;;;;;;;;;;1.26;58.79;102007.28;5285682;33;35716;-71
2022/12/18 02:15:48;;;;;;;;;;;;;;;0.91;59.28;102008.09;5273380;33;35438;-70
2022/12/18 02:18:50;;;;;;;;;;;;;;;0.94;59.45;102014.22;5270268;33;44335;-71
2022/12/18 02:22:02;;;;;;;;;;;;;;;1.23;58.14;102014.97;5288997;33;36563;-70
2022/12/18 02:25:13;;;;;;;;;;;;;;;1.86;56.17;102011.25;5272783;33;35698;-70
2022/12/18 02:28:15;;;;;;;;;;;;;;;1.87;56.06;102021.69;5285516;33;44490;-72
2022/12/18 02:31:19;;;;;;;;;;;;;;;1.86;55.98;102025.09;5277132;33;36128;-72
2022/12/18 02:34:21;;;;;;;;;;;;;;;2.09;55.11;102030.81;5283926;32;35664;-72
2022/12/18 02:37:23;;;;;;;;;;;;;;;1.93;54.94;102025.25;5295694;32;35313;-70
2022/12/18 02:40:26;;;;;;;;;;;;;;;0.76;58.19;102031.84;5260319;33;35542;-70
2022/12/18 02:43:27;;;;;;;;;;;;;;;0.40;60.56;102042.06;5297677;33;36060;-71
2022/12/18 02:46:37;;;;;;;;;;;;;;;0.85;59.23;102045.06;5280616;33;34955;-70
2022/12/18 02:49:57;;;;;;;;;;;;;;;0.81;59.58;102040.63;5296782;32;35546;-71
2022/12/18 02:53:14;;;;;;;;;;;;;;;1.27;57.88;102041.81;5275716;33;36107;-71
2022/12/18 02:56:18;;;;;;;;;;;;;;;1.83;56.18;102042.31;5269693;33;44574;-72
2022/12/18 02:59:23;;;;;;;;;;;;;;;0.84;58.32;102060.53;5297207;33;35191;-70
2022/12/18 03:02:46;;;;;;;;;;;;;;;0.73;59.82;102066.28;5280305;32;35277;-71
2022/12/18 03:05:56;;;;;;;;;;;;;;;0.66;60.09;102069.56;5282264;32;44593;-72
2022/12/18 03:09:00;;;;;;;;;;;;;;;0.90;59.54;102071.03;5291667;33;35332;-71
2022/12/18 03:12:23;;;;;;;;;;;;;;;1.59;57.24;102071.13;5279989;32;35344;-72
2022/12/18 03:15:31;;;;;;;;;;;;;;;0.60;59.81;102081.44;5295309;33;34783;-70
2022/12/18 03:18:37;;;;;;;;;;;;;;;0.93;60.03;102084.09;5271108;33;35759;-72
2022/12/18 03:21:43;;;;;;;;;;;;;;;1.40;58.33;102082.75;5297019;33;35428;-70
2022/12/18 03:24:45;;;;;;;;;;;;;;;1.57;56.75;102073.69;5279939;32;47129;-71
2022/12/18 03:27:49;;;;;;;;;;;;;;;-0.85;63.39;102088.03;5279666;32;36310;-71
2022/12/18 03:30:52;;;;;;;;;;;;;;;-0.24;63.09;102100.44;5292739;33;34452;-71
2022/12/18 03:33:55;;;;;;;;;;;;;;;0.58;61.16;102107.28;5278057;33;36457;-71
2022/12/18 03:36:57;;;;;;;;;;;;;;;1.32;58.29;102100.69;5295865;33;35287;-70
2022/12/18 03:39:59;;;;;;;;;;;;;;;1.25;58.66;102105.66;5250377;33;35587;-70
2022/12/18 03:43:03;;;;;;;;;;;;;;;1.07;57.89;102113.81;5284672;32;36079;-71
2022/12/18 03:46:07;;;;;;;;;;;;;;;0.57;61.02;102123.59;5289302;33;35345;-71
2022/12/18 03:49:10;;;;;;;;;;;;;;;0.68;60.65;102127.41;5281125;33;35308;-71
2022/12/18 03:52:14;;;;;;;;;;;;;;;0.24;61.50;102126.06;5296187;33;35532;-71
2022/12/18 03:55:16;;;;;;;;;;;;;;;0.05;62.11;102119.44;5280488;33;47371;-71
2022/12/18 03:58:20;;;;;;;;;;;;;;;1.09;59.07;102119.91;5296827;32;35288;-70
2022/12/18 04:01:23;;;;;;;;;;;;;;;1.47;57.68;102115.75;5279565;33;36574;-71
2022/12/18 04:04:25;;;;;;;;;;;;;;;0.95;58.90;102119.53;5289001;32;35115;-72
2022/12/18 04:07:26;;;;;;;;;;;;;;;1.20;58.62;102110.72;5292269;32;35217;-70
2022/12/18 04:10:28;;;;;;;;;;;;;;;-0.11;62.60;102141.34;5280931;33;35353;-70
2022/12/18 04:13:37;;;;;;;;;;;;;;;-0.02;62.53;102145.94;5302393;33;35712;-71
2022/12/18 04:16:39;;;;;;;;;;;;;;;0.11;63.18;102149.78;5280205;32;35830;-70
2022/12/18 04:19:41;;;;;;;;;;;;;;;0.48;61.15;102144.94;5299577;32;35412;-71
2022/12/18 04:22:43;;;;;;;;;;;;;;;1.01;59.68;102142.13;5270990;33;35645;-71
2022/12/18 04:25:46;;;;;;;;;;;;;;;1.22;58.29;102140.12;5280602;32;44361;-71
2022/12/18 04:28:48;;;;;;;;;;;;;;;0.59;60.00;102149.56;5284278;33;35588;-70
2022/12/18 04:31:50;;;;;;;;;;;;;;;0.62;60.10;102140.16;5266730;33;35853;-70
2022/12/18 04:34:52;;;;;;;;;;;;;;;0.61;60.50;102146.16;5284580;33;35562;-70
2022/12/18 04:37:54;;;;;;;;;;;;;;;1.03;59.67;102143.03;5263614;33;35341;-70
2022/12/18 04:40:55;;;;;;;;;;;;;;;1.03;58.86;102137.88;5269762;33;35532;-70
2022/12/18 04:43:57;;;;;;;;;;;;;;;0.71;60.12;102155.06;5271256;33;35548;-70
2022/12/18 04:46:59;;;;;;;;;;;;;;;-0.27;63.29;102170.97;5268822;33;35246;-72
2022/12/18 04:50:01;;;;;;;;;;;;;;;0.46;61.69;102172.47;5285606;33;35621;-71
2022/12/18 04:53:03;;;;;;;;;;;;;;;0.65;60.64;102180.78;5269642;33;36978;-71
2022/12/18 04:56:09;;;;;;;;;;;;;;;-0.53;64.64;102184.72;5284958;33;35385;-71
2022/12/18 04:59:11;;;;;;;;;;;;;;;-0.40;64.07;102189.47;5280070;32;35452;-71
2022/12/18 05:02:13;;;;;;;;;;;;;;;-0.40;64.21;102191.19;5293892;33;36005;-71
2022/12/18 05:05:15;;;;;;;;;;;;;;;-0.41;64.48;102185.13;5283405;32;43761;-72
2022/12/18 05:08:17;;;;;;;;;;;;;;;-0.14;63.85;102194.62;5282164;32;35660;-71
2022/12/18 05:11:19;;;;;;;;;;;;;;;0.19;62.72;102194.84;5283977;33;35407;-71
2022/12/18 05:14:20;;;;;;;;;;;;;;;0.54;61.22;102194.28;5270502;33;35065;-70
2022/12/18 05:17:22;;;;;;;;;;;;;;;0.43;60.99;102203.41;5286577;33;34728;-70
2022/12/18 05:20:24;;;;;;;;;;;;;;;0.52;61.28;102188.19;5281680;33;35377;-70
2022/12/18 05:23:26;;;;;;;;;;;;;;;0.45;61.06;102204.34;5302495;32;34757;-70
2022/12/18 05:26:28;;;;;;;;;;;;;;;-0.25;63.65;102204.62;5282471;33;36652;-70
2022/12/18 05:29:30;;;;;;;;;;;;;;;-0.27;63.48;102216.59;5268744;33;36022;-71
2022/12/18 05:32:32;;;;;;;;;;;;;;;-0.55;64.57;102223.41;5284544;33;35380;-70
2022/12/18 05:35:34;;;;;;;;;;;;;;;0.08;62.88;102222.97;5280982;32;35321;-70
2022/12/18 05:38:36;;;;;;;;;;;;;;;-0.24;63.24;102224.47;5273078;33;35380;-72
2022/12/18 05:41:38;;;;;;;;;;;;;;;-0.24;63.20;102223.59;5263820;33;35318;-71
2022/12/18 05:44:40;;;;;;;;;;;;;;;-0.45;64.06;102231.47;5298425;32;36057;-70
2022/12/18 05:47:42;;;;;;;;;;;;;;;-0.31;63.34;102238.03;5284263;32;35301;-71
2022/12/18 05:50:47;;;;;;;;;;;;;;;-0.45;63.83;102228.88;5271704;33;35947;-71
2022/12/18 05:53:49;;;;;;;;;;;;;;;-0.93;65.22;102239.22;5296997;33;44707;-70
2022/12/18 05:56:51;;;;;;;;;;;;;;;-0.82;65.02;102249.12;5280662;33;35631;-71
2022/12/18 05:59:53;;;;;;;;;;;;;;;-0.68;64.80;102252.19;5287003;33;35697;-69
2022/12/18 06:02:55;;;;;;;;;;;;;;;0.55;60.94;102252.06;5270351;33;36014;-71
2022/12/18 06:05:57;;;;;;;;;;;;;;;0.06;61.18;102257.34;5285458;33;35344;-71
2022/12/18 06:09:01;;;;;;;;;;;;;;;0.33;60.86;102254.81;5267554;33;35844;-71
2022/12/18 06:12:03;;;;;;;;;;;;;;;0.32;61.09;102258.22;5271165;33;36246;-71
2022/12/18 06:15:05;;;;;;;;;;;;;;;-0.25;62.24;102261.50;5286768;33;34768;-72
2022/12/18 06:18:07;;;;;;;;;;;;;;;0.14;61.70;102258.50;5281607;33;36022;-72
2022/12/18 06:21:09;;;;;;;;;;;;;;;0.16;61.39;102259.41;5286580;33;35301;-71
2022/12/18 06:24:10;;;;;;;;;;;;;;;0.63;59.70;102254.88;5269196;33;35926;-71
2022/12/18 06:27:12;;;;;;;;;;;;;;;0.54;60.06;102266.72;5281598;33;36056;-70
2022/12/18 06:30:14;;;;;;;;;;;;;;;-0.12;61.70;102271.44;5271547;33;43893;-71
2022/12/18 06:33:16;;;;;;;;;;;;;;;-0.06;61.48;102274.22;5267883;33;35955;-70
2022/12/18 06:36:19;;;;;;;;;;;;;;;0.06;62.09;102288.38;5285572;33;37975;-71
2022/12/18 06:39:21;;;;;;;;;;;;;;;-0.09;61.85;102284.44;5253789;33;35519;-71
2022/12/18 06:42:23;;;;;;;;;;;;;;;-1.24;65.25;102297.38;5284711;33;36276;-70
2022/12/18 06:45:25;;;;;;;;;;;;;;;-2.29;69.40;102314.50;5270017;33;35310;-70
2022/12/18 06:48:28;;;;;;;;;;;;;;;-1.92;69.06;102316.09;5292727;32;36033;-72
2022/12/18 06:51:30;;;;;;;;;;;;;;;-1.33;67.28;102315.09;5287274;33;35239;-70
2022/12/18 06:54:32;;;;;;;;;;;;;;;-1.58;67.91;102314.91;5281714;33;35331;-72
2022/12/18 06:57:34;;;;;;;;;;;;;;;-1.10;66.75;102321.13;5296582;32;36076;-71
2022/12/18 07:00:36;;;;;;;;;;;;;;;-0.51;64.70;102322.56;5271444;33;35372;-70
2022/12/18 07:03:41;;;;;;;;;;;;;;;-0.50;64.15;102338.94;5289651;33;36609;-71
2022/12/18 07:06:43;;;;;;;;;;;;;;;-0.07;63.21;102336.19;5274253;33;34684;-70
2022/12/18 07:09:45;;;;;;;;;;;;;;;-0.32;64.19;102342.22;5276650;33;45542;-70
2022/12/18 07:12:47;;;;;;;;;;;;;;;-0.68;64.17;102345.16;5279980;33;36073;-70
2022/12/18 07:15:49;;;;;;;;;;;;;;;0.09;62.41;102341.09;5270474;33;35168;-71
2022/12/18 07:18:51;;;;;;;;;;;;;;;0.59;60.25;102346.22;5285867;33;35910;-70
2022/12/18 07:21:53;;;;;;;;;;;;;;;-0.89;64.60;102359.84;5273735;33;34622;-70
2022/12/18 07:24:55;;;;;;;;;;;;;;;-0.80;63.76;102359.31;5296551;32;36217;-71
2022/12/18 07:27:56;;;;;;;;;;;;;;;-0.40;63.43;102366.84;5270908;33;34961;-71
2022/12/18 07:31:02;;;;;;;;;;;;;;;-1.01;65.34;102382.59;5273360;33;34910;-71
2022/12/18 07:34:04;;;;;;;;;;;;;;;-0.03;62.86;102377.72;5278535;33;35470;-70
2022/12/18 07:37:06;;;;;;;;;;;;;;;-0.30;61.95;102380.19;5271336;33;35258;-70
2022/12/18 07:40:08;;;;;;;;;;;;;;;-0.55;63.72;102391.28;5263643;33;35343;-70
2022/12/18 07:43:10;;;;;;;;;;;;;;;-0.17;62.96;102393.56;5269583;33;36053;-73
2022/12/18 07:46:15;;;;;;;;;;;;;;;0.55;60.62;102391.78;5284947;33;36639;-71
2022/12/18 07:49:17;;;;;;;;;;;;;;;0.49;59.14;102395.06;5279245;32;44563;-72
2022/12/18 07:52:19;;;;;;;;;;;;;;;0.57;59.26;102404.78;5274031;33;36063;-70
2022/12/18 07:55:26;;;;;;;;;;;;;;;-0.74;61.66;102413.78;5285073;33;35073;-71
2022/12/18 07:58:30;;;;;;;;;;;;;;;0.62;59.42;102408.41;5270238;33;35200;-71
2022/12/18 08:01:32;;;;;;;;;;;;;;;-0.09;60.00;102413.69;5296035;33;35839;-69
2022/12/18 08:04:34;;;;;;;;;;;;;;;-0.70;62.84;102423.41;5283900;32;35464;-70
2022/12/18 08:07:36;;;;;;;;;;;;;;;-1.23;64.76;102422.97;5299370;32;35336;-72
2022/12/18 08:10:39;;;;;;;;;;;;;;;0.32;61.96;102422.03;5268999;33;35974;-71
2022/12/18 08:13:40;;;;;;;;;;;;;;;0.87;59.54;102426.53;5270618;33;35524;-69
2022/12/18 08:16:43;;;;;;;;;;;;;;;0.98;58.51;102438.12;5284939;33;34824;-72
2022/12/18 08:19:45;;;;;;;;;;;;;;;0.90;58.46;102431.81;5270110;33;44694;-71
2022/12/18 08:22:47;;;;;;;;;;;;;;;0.46;59.13;102441.53;5290347;33;35327;-72
2022/12/18 08:25:49;;;;;;;;;;;;;;;0.10;61.84;102443.69;5283752;32;35971;-71
2022/12/18 08:28:51;;;;;;;;;;;;;;;0.46;61.14;102446.72;5282902;33;34815;-71
2022/12/18 08:31:53;;;;;;;;;;;;;;;0.94;59.66;102444.00;5267390;33;35603;-70
2022/12/18 08:34:55;;;;;;;;;;;;;;;1.55;58.39;102445.97;5277749;32;35560;-71
2022/12/18 08:37:57;;;;;;;;;;;;;;;1.34;57.33;102446.16;5278044;33;35943;-71
2022/12/18 08:41:00;;;;;;;;;;;;;;;1.00;59.18;102448.50;5262022;33;35664;-71
2022/12/18 08:47:22;;;;;;;;;;;;;;;0.81;60.85;102452.19;5269087;33;44580;-71
2022/12/18 08:50:24;;;;;;;;;;;;;;;0.36;61.13;102459.25;5277468;33;35420;-71
2022/12/18 08:53:26;;;;;;;;;;;;;;;0.47;60.75;102455.34;5286977;33;35420;-71
2022/12/18 08:56:36;;;;;;;;;;;;;;;0.47;60.76;102463.97;5268902;33;35853;-71
2022/12/18 08:59:37;;;;;;;;;;;;;;;0.60;60.63;102462.72;5285221;33;36386;-71
2022/12/18 09:02:39;;;;;;;;;;;;;;;0.68;59.41;102466.44;5268666;33;35616;-71
2022/12/18 09:05:41;;;;;;;;;;;;;;;1.25;58.10;102460.56;5292073;33;38737;-71
2022/12/18 09:08:44;;;;;;;;;;;;;;;1.42;57.57;102474.94;5278840;32;34780;-71
2022/12/18 09:11:46;;;;;;;;;;;;;;;2.30;55.46;102470.63;5284659;33;45055;-71
2022/12/18 09:14:47;;;;;;;;;;;;;;;2.44;53.82;102475.34;5280507;33;35632;-71
2022/12/18 09:17:49;;;;;;;;;;;;;;;1.65;57.11;102487.72;5269226;33;35595;-71
2022/12/18 09:20:52;;;;;;;;;;;;;;;2.01;55.43;102482.78;5284372;33;35926;-73
2022/12/18 09:23:54;;;;;;;;;;;;;;;2.25;54.41;102482.56;5278925;32;35759;-71
2022/12/18 09:26:56;;;;;;;;;;;;;;;1.53;57.02;102476.12;5295446;32;36114;-72
2022/12/18 09:29:58;;;;;;;;;;;;;;;1.54;57.31;102483.06;5274822;33;36100;-72
2022/12/18 09:33:00;;;;;;;;;;;;;;;1.63;56.71;102478.19;5269471;33;34937;-70
2022/12/18 09:36:03;;;;;;;;;;;;;;;2.62;54.73;102477.56;5285745;33;35986;-71
2022/12/18 09:39:05;;;;;;;;;;;;;;;2.41;54.82;102482.19;5263286;33;35864;-71
2022/12/18 09:42:12;;;;;;;;;;;;;;;2.74;54.03;102476.12;5281247;33;35663;-71
2022/12/18 09:45:14;;;;;;;;;;;;;;;2.42;54.74;102470.97;5277672;33;36992;-72
2022/12/18 09:48:27;;;;;;;;;;;;;;;1.88;55.83;102479.81;5294834;33;36363;-71
2022/12/18 09:51:35;;;;;;;;;;;;;;;2.47;55.03;102477.16;5269550;33;36539;-72
2022/12/18 09:54:40;;;;;;;;;;;;;;;1.86;55.47;102478.88;5267860;33;36128;-72
2022/12/18 09:57:49;;;;;;;;;;;;;;;3.32;52.51;102470.69;5293915;33;37326;-71
2022/12/18 10:00:51;;;;;;;;;;;;;;;3.45;51.15;102471.84;5267726;33;44765;-71
2022/12/18 10:03:54;;;;;;;;;;;;;;;2.36;53.21;102482.03;5286477;33;36120;-71
2022/12/18 10:07:01;;;;;;;;;;;;;;;2.36;54.22;102466.47;5284061;32;35337;-71
2022/12/18 10:10:22;;;;;;;;;;;;;;;2.69;53.60;102473.41;5283941;32;35738;-71
2022/12/18 10:13:37;;;;;;;;;;;;;;;3.31;52.45;102463.72;5285215;33;37415;-73
2022/12/18 10:16:59;;;;;;;;;;;;;;;3.08;52.38;102465.75;5281093;32;36001;-70
2022/12/18 10:20:08;;;;;;;;;;;;;;;3.47;51.69;102459.75;5298240;32;36066;-71
2022/12/18 10:23:17;;;;;;;;;;;;;;;3.62;51.76;102464.44;5269804;33;36176;-71
2022/12/18 10:26:19;;;;;;;;;;;;;;;3.69;51.30;102456.81;5270059;33;44867;-71
2022/12/18 10:29:22;;;;;;;;;;;;;;;4.14;49.50;102452.56;5283773;33;34560;-71
2022/12/18 10:32:28;;;;;;;;;;;;;;;3.36;51.99;102456.94;5277878;32;35728;-71
2022/12/18 10:35:30;;;;;;;;;;;;;;;2.07;54.36;102463.06;5284465;33;35464;-71
2022/12/18 10:38:31;;;;;;;;;;;;;;;2.90;53.08;102454.94;5256751;33;36077;-70
2022/12/18 10:41:33;;;;;;;;;;;;;;;3.51;51.78;102451.19;5286342;33;36152;-70
2022/12/18 10:44:35;;;;;;;;;;;;;;;3.99;50.75;102450.50;5272910;33;36089;-71
2022/12/18 10:47:41;;;;;;;;;;;;;;;3.96;50.61;102450.44;5269678;33;35639;-72
2022/12/18 10:50:45;;;;;;;;;;;;;;;3.86;50.62;102456.28;5285182;33;34981;-72
2022/12/18 10:54:21;;;;;;;;;;;;;;;4.70;48.91;102447.53;5269322;33;36235;-72
2022/12/18 10:57:26;;;;;;;;;;;;;;;5.21;47.64;102447.53;5294873;32;44008;-72
2022/12/18 11:00:29;;;;;;;;;;;;;;;4.35;49.34;102440.81;5283272;32;36432;-70
2022/12/18 11:03:31;;;;;;;;;;;;;;;3.69;51.43;102449.00;5285233;32;35316;-71
2022/12/18 11:06:33;;;;;;;;;;;;;;;4.71;48.99;102447.56;5300609;32;35406;-71
2022/12/18 11:09:37;;;;;;;;;;;;;;;4.61;48.92;102440.44;5280341;32;35395;-72
2022/12/18 11:12:38;;;;;;;;;;;;;;;4.71;48.51;102434.56;5298840;32;36309;-71
2022/12/18 11:15:40;;;;;;;;;;;;;;;5.04;47.29;102435.97;5278691;33;36214;-71
2022/12/18 11:18:42;;;;;;;;;;;;;;;4.77;47.44;102439.00;5284324;33;35330;-73
2022/12/18 11:21:44;;;;;;;;;;;;;;;5.09;47.70;102423.91;5275022;33;35154;-72
2022/12/18 11:25:13;;;;;;;;;;;;;;;5.36;47.18;102426.91;5280833;32;35675;-72
2022/12/18 11:28:45;;;;;;;;;;;;;;;5.68;46.62;102429.09;5284664;33;35793;-73
2022/12/18 11:31:47;;;;;;;;;;;;;;;4.87;48.04;102440.88;5276061;32;45100;-72
2022/12/18 11:34:50;;;;;;;;;;;;;;;6.52;44.61;102430.13;5285289;32;35500;-71
2022/12/18 11:38:02;;;;;;;;;;;;;;;7.30;42.37;102420.34;5285503;32;36182;-72
2022/12/18 11:41:19;;;;;;;;;;;;;;;6.07;43.33;102425.28;5257698;33;35595;-72
2022/12/18 11:44:25;;;;;;;;;;;;;;;6.77;42.10;102418.19;5285213;33;44470;-73
2022/12/18 11:47:39;;;;;;;;;;;;;;;7.26;40.71;102408.97;5270690;33;35110;-73
2022/12/18 11:50:44;;;;;;;;;;;;;;;7.89;40.22;102411.94;5276348;33;36236;-72
2022/12/18 11:53:46;;;;;;;;;;;;;;;8.28;40.08;102402.47;5280817;33;45289;-71
2022/12/18 11:56:49;;;;;;;;;;;;;;;9.78;36.29;102401.50;5270198;33;35478;-71
2022/12/18 12:00:11;;;;;;;;;;;;;;;9.48;36.23;102399.87;5295967;32;34662;-72
2022/12/18 12:03:22;;;;;;;;;;;;;;;9.47;36.68;102399.87;5281397;32;36119;-71
2022/12/18 12:06:42;;;;;;;;;;;;;;;10.07;36.04;102383.88;5285663;33;46473;-72
2022/12/18 12:09:59;;;;;;;;;;;;;;;13.05;31.26;102372.59;5271301;33;34869;-71
2022/12/18 12:13:20;;;;;;;;;;;;;;;12.98;30.48;102377.12;4680608;33;10000529;-73
2022/12/18 12:16:42;;;;;;;;;;;;;;;13.21;29.76;102382.91;5285811;33;44859;-73
2022/12/18 12:19:49;;;;;;;;;;;;;;;13.91;28.70;102377.09;5269412;33;33790;-72
2022/12/18 12:22:56;;;;;;;;;;;;;;;15.26;27.19;102369.44;5271497;33;46622;-73
2022/12/18 12:25:59;;;;;;;;;;;;;;;15.69;26.09;102367.34;5292934;32;34274;-72
2022/12/18 12:29:03;;;;;;;;;;;;;;;14.64;26.75;102375.47;5268707;33;32917;-73
2022/12/18 12:32:07;;;;;;;;;;;;;;;14.84;26.47;102378.47;5284175;33;33614;-72
2022/12/18 12:35:35;;;;;;;;;;;;;;;14.68;26.86;102378.87;5277137;33;33143;-72
2022/12/18 12:38:42;;;;;;;;;;;;;;;13.66;28.22;102388.19;5260072;33;34244;-72
2022/12/18 12:45:16;;;;;;;;;;;;;;;14.18;27.60;102383.56;5268876;33;33661;-71
2022/12/18 12:48:32;;;;;;;;;;;;;;;11.83;31.23;102383.25;5296456;33;45173;-72
2022/12/18 12:51:38;;;;;;;;;;;;;;;15.08;26.29;102390.22;5280907;33;33836;-72
2022/12/18 12:54:41;;;;;;;;;;;;;;;16.55;24.18;102385.97;5280385;33;34259;-72
2022/12/18 12:57:45;;;;;;;;;;;;;;;17.99;22.40;102386.25;5285614;33;34282;-72
2022/12/18 13:01:08;;;;;;;;;;;;;;;16.86;22.31;102403.56;5278976;33;46775;-71
2022/12/18 13:04:36;;;;;;;;;;;;;;;13.74;26.00;102404.75;5285389;33;33989;-74
2022/12/18 13:07:49;;;;;;;;;;;;;;;11.56;28.64;102416.03;5271919;33;33910;-72
2022/12/18 13:12:55;;;;;;;;;;;;;;;9.57;32.41;102433.09;5269035;33;45388;-72
2022/12/18 13:14:21;;;;;;;;;;;;;;;8.88;34.17;102430.53;5292221;33;46235;-72
2022/12/18 13:17:28;;;;;;;;;;;;;;;9.17;33.87;102437.53;5278819;33;33653;-71
2022/12/18 13:20:34;;;;;;;;;;;;;;;8.58;34.79;102439.25;5293964;33;33452;-73
2022/12/18 13:23:37;;;;;;;;;;;;;;;7.32;37.04;102437.78;5272570;33;33498;-73
2022/12/18 13:26:40;;;;;;;;;;;;;;;7.92;35.94;102442.47;5279759;33;33720;-72
2022/12/18 13:29:43;;;;;;;;;;;;;;;7.83;36.55;102441.56;5282845;33;35185;-72
2022/12/18 13:32:45;;;;;;;;;;;;;;;7.38;36.98;102436.94;5266516;33;44641;-73
2022/12/18 13:35:47;;;;;;;;;;;;;;;7.64;37.23;102444.97;5283589;33;33456;-71
2022/12/18 13:39:08;;;;;;;;;;;;;;;6.99;38.61;102456.69;5254321;33;33523;-71
2022/12/18 13:43:11;;;;;;;;;;;;;;;7.29;38.14;102461.31;5272298;33;34117;-71
2022/12/18 13:45:36;;;;;;;;;;;;;;;6.94;38.48;102463.63;5287215;33;33914;-71
2022/12/18 13:48:37;;;;;;;;;;;;;;;6.88;38.64;102460.94;5281227;33;33748;-72
2022/12/18 13:51:44;;;;;;;;;;;;;;;6.90;39.06;102464.47;5288065;33;33735;-72
2022/12/18 13:54:48;;;;;;;;;;;;;;;6.22;40.62;102462.88;5269584;33;43365;-70
2022/12/18 13:57:51;;;;;;;;;;;;;;;7.28;39.53;102458.69;5289665;32;33895;-71
2022/12/18 14:00:53;;;;;;;;;;;;;;;7.87;38.05;102466.03;5285912;32;33671;-72
2022/12/18 14:04:13;;;;;;;;;;;;;;;8.35;37.37;102470.63;5270699;33;33749;-73
2022/12/18 14:07:26;;;;;;;;;;;;;;;8.92;36.02;102462.88;5298706;32;44938;-72
2022/12/18 14:10:32;;;;;;;;;;;;;;;9.62;34.99;102462.84;5280822;32;33234;-71
2022/12/18 14:13:50;;;;;;;;;;;;;;;6.98;40.23;102482.84;5285818;33;44895;-73
2022/12/18 14:16:52;;;;;;;;;;;;;;;6.97;40.67;102478.47;5281933;33;33123;-72
2022/12/18 14:19:54;;;;;;;;;;;;;;;7.77;39.44;102474.69;5282460;32;33105;-71
2022/12/18 14:22:56;;;;;;;;;;;;;;;6.72;42.04;102477.37;5288508;33;33306;-71
2022/12/18 14:25:59;;;;;;;;;;;;;;;6.92;41.81;102478.44;5281855;32;34268;-72
2022/12/18 14:29:26;;;;;;;;;;;;;;;6.28;43.35;102480.34;5285824;33;33123;-73
2022/12/18 14:32:28;;;;;;;;;;;;;;;5.52;45.64;102482.78;5282202;32;34218;-71
2022/12/18 14:35:31;;;;;;;;;;;;;;;5.03;46.14;102483.75;5270273;33;33933;-73
2022/12/18 14:38:34;;;;;;;;;;;;;;;6.37;43.65;102485.69;5274067;33;33586;-71
2022/12/18 14:41:36;;;;;;;;;;;;;;;6.09;43.69;102492.31;5273953;33;33769;-71
2022/12/18 14:44:38;;;;;;;;;;;;;;;5.50;45.06;102501.88;5287737;33;33896;-72
2022/12/18 14:47:58;;;;;;;;;;;;;;;5.29;44.91;102507.63;5270260;33;33653;-72
2022/12/18 14:51:02;;;;;;;;;;;;;;;5.01;45.65;102508.88;5276456;33;34230;-72
2022/12/18 14:54:13;;;;;;;;;;;;;;;4.61;46.15;102515.97;5293354;33;34359;-71
2022/12/18 14:57:21;;;;;;;;;;;;;;;4.33;46.90;102528.44;5281136;33;44717;-72
2022/12/18 15:00:23;;;;;;;;;;;;;;;5.38;43.81;102524.28;5287240;33;34008;-71
2022/12/18 15:03:25;;;;;;;;;;;;;;;4.97;43.94;102526.22;5280499;33;34034;-71
2022/12/18 15:06:27;;;;;;;;;;;;;;;4.71;45.38;102525.72;5286038;33;33745;-71
2022/12/18 15:09:29;;;;;;;;;;;;;;;4.33;46.44;102537.97;5271624;33;34171;-73
2022/12/18 15:12:35;;;;;;;;;;;;;;;4.51;46.94;102542.69;5268463;33;33367;-73
2022/12/18 15:15:37;;;;;;;;;;;;;;;4.42;47.67;102545.97;5284745;33;34095;-71
2022/12/18 15:18:41;;;;;;;;;;;;;;;4.60;47.55;102545.47;5269687;33;33101;-74
2022/12/18 15:21:43;;;;;;;;;;;;;;;4.57;47.69;102537.56;5297893;32;32975;-73
2022/12/18 15:24:44;;;;;;;;;;;;;;;4.78;47.69;102558.84;5269246;33;43677;-72
2022/12/18 15:27:46;;;;;;;;;;;;;;;4.67;47.79;102557.75;5283521;33;33324;-72
2022/12/18 15:31:02;;;;;;;;;;;;;;;4.60;48.05;102555.87;5281151;32;33611;-72
2022/12/18 15:34:07;;;;;;;;;;;;;;;4.87;47.20;102561.63;5276462;33;33826;-73
2022/12/18 15:37:09;;;;;;;;;;;;;;;3.65;50.04;102577.19;5292222;33;34119;-72
2022/12/18 15:40:15;;;;;;;;;;;;;;;4.71;47.99;102576.94;5249563;33;33746;-73
2022/12/18 15:43:33;;;;;;;;;;;;;;;4.72;48.11;102574.38;5285890;33;43389;-72
2022/12/18 15:46:35;;;;;;;;;;;;;;;4.48;48.80;102574.75;5281521;32;34581;-73
2022/12/18 15:49:37;;;;;;;;;;;;;;;4.48;48.38;102587.75;5270690;33;33934;-71
2022/12/18 15:52:39;;;;;;;;;;;;;;;4.69;48.17;102587.31;5285369;33;33440;-72
2022/12/18 15:59:04;;;;;;;;;;;;;;;5.13;46.65;102606.41;5295853;33;32141;-73
2022/12/18 16:02:08;;;;;;;;;;;;;;;5.03;46.61;102601.03;5280122;33;33820;-72
2022/12/18 16:05:14;;;;;;;;;;;;;;;4.86;47.24;102603.28;5284879;33;31832;-71
2022/12/18 16:08:15;;;;;;;;;;;;;;;4.55;48.48;102613.06;5282149;33;44884;-73
2022/12/18 16:11:37;;;;;;;;;;;;;;;4.48;48.36;102616.41;5269134;33;33202;-71